sensor_id;sensor_type;location;lat;lon;timestamp;P1;durP1;ratioP1;P2;durP2;ratioP2
32613;SDS011;19031;51.400;6.770;2023-12-07T00:00:35;55.40;;;21.35;;
32613;SDS011;19031;51.400;6.770;2023-12-07T00:03:01;56.75;;;20.35;;
32613;SDS011;19031;51.400;6.770;2023-12-07T00:05:26;78.68;;;21.42;;
32613;SDS011;19031;51.400;6.770;2023-12-07T00:07:52;111.75;;;22.58;;
32613;SDS011;19031;51.400;6.770;2023-12-07T00:10:18;85.72;;;21.90;;
32613;SDS011;19031;51.400;6.770;2023-12-07T00:12:43;84.53;;;21.90;;
32613;SDS011;19031;51.400;6.770;2023-12-07T00:15:09;114.50;;;23.85;;
32613;SDS011;19031;51.400;6.770;2023-12-07T00:17:35;49.22;;;16.65;;
32613;SDS011;19031;51.400;6.770;2023-12-07T00:20:00;65.25;;;21.48;;
32613;SDS011;19031;51.400;6.770;2023-12-07T00:22:26;50.22;;;17.02;;
32613;SDS011;19031;51.400;6.770;2023-12-07T00:24:53;74.70;;;19.30;;
32613;SDS011;19031;51.400;6.770;2023-12-07T00:27:19;89.07;;;21.52;;
32613;SDS011;19031;51.400;6.770;2023-12-07T00:29:44;99.03;;;20.98;;
32613;SDS011;19031;51.400;6.770;2023-12-07T00:32:10;129.85;;;22.27;;
32613;SDS011;19031;51.400;6.770;2023-12-07T00:34:35;105.75;;;20.95;;
32613;SDS011;19031;51.400;6.770;2023-12-07T00:37:01;46.40;;;15.43;;
32613;SDS011;19031;51.400;6.770;2023-12-07T00:39:28;142.68;;;22.58;;
32613;SDS011;19031;51.400;6.770;2023-12-07T00:41:53;69.32;;;17.52;;
32613;SDS011;19031;51.400;6.770;2023-12-07T00:44:19;108.15;;;23.50;;
32613;SDS011;19031;51.400;6.770;2023-12-07T00:46:44;75.97;;;21.15;;
32613;SDS011;19031;51.400;6.770;2023-12-07T00:49:10;88.38;;;20.40;;
32613;SDS011;19031;51.400;6.770;2023-12-07T00:51:37;127.45;;;21.27;;
32613;SDS011;19031;51.400;6.770;2023-12-07T00:54:02;72.03;;;22.05;;
32613;SDS011;19031;51.400;6.770;2023-12-07T00:56:28;67.45;;;21.77;;
32613;SDS011;19031;51.400;6.770;2023-12-07T00:58:54;109.00;;;21.88;;
32613;SDS011;19031;51.400;6.770;2023-12-07T01:01:19;95.07;;;22.15;;
32613;SDS011;19031;51.400;6.770;2023-12-07T01:03:45;107.55;;;23.67;;
32613;SDS011;19031;51.400;6.770;2023-12-07T01:06:10;122.32;;;23.55;;
32613;SDS011;19031;51.400;6.770;2023-12-07T01:08:36;133.52;;;26.60;;
32613;SDS011;19031;51.400;6.770;2023-12-07T01:11:02;84.60;;;22.05;;
32613;SDS011;19031;51.400;6.770;2023-12-07T01:13:29;92.53;;;23.05;;
32613;SDS011;19031;51.400;6.770;2023-12-07T01:15:55;59.30;;;21.73;;
32613;SDS011;19031;51.400;6.770;2023-12-07T01:18:21;192.20;;;29.23;;
32613;SDS011;19031;51.400;6.770;2023-12-07T01:20:46;59.65;;;20.13;;
32613;SDS011;19031;51.400;6.770;2023-12-07T01:23:13;99.70;;;22.70;;
32613;SDS011;19031;51.400;6.770;2023-12-07T01:25:39;69.10;;;22.00;;
32613;SDS011;19031;51.400;6.770;2023-12-07T01:28:04;55.90;;;22.77;;
32613;SDS011;19031;51.400;6.770;2023-12-07T01:30:30;86.72;;;25.50;;
32613;SDS011;19031;51.400;6.770;2023-12-07T01:32:55;108.53;;;24.92;;
32613;SDS011;19031;51.400;6.770;2023-12-07T01:35:21;58.58;;;18.55;;
32613;SDS011;19031;51.400;6.770;2023-12-07T01:37:47;118.00;;;26.25;;
32613;SDS011;19031;51.400;6.770;2023-12-07T01:40:12;69.90;;;20.17;;
32613;SDS011;19031;51.400;6.770;2023-12-07T01:42:40;170.48;;;28.92;;
32613;SDS011;19031;51.400;6.770;2023-12-07T01:47:39;58.72;;;19.73;;
32613;SDS011;19031;51.400;6.770;2023-12-07T01:50:05;147.23;;;26.45;;
32613;SDS011;19031;51.400;6.770;2023-12-07T01:52:32;161.65;;;27.15;;
32613;SDS011;19031;51.400;6.770;2023-12-07T01:55:04;82.57;;;22.20;;
32613;SDS011;19031;51.400;6.770;2023-12-07T01:57:32;131.63;;;23.77;;
32613;SDS011;19031;51.400;6.770;2023-12-07T01:59:58;130.75;;;26.85;;
32613;SDS011;19031;51.400;6.770;2023-12-07T02:02:24;148.23;;;23.05;;
32613;SDS011;19031;51.400;6.770;2023-12-07T02:04:50;150.95;;;26.00;;
32613;SDS011;19031;51.400;6.770;2023-12-07T02:07:15;87.95;;;22.25;;
32613;SDS011;19031;51.400;6.770;2023-12-07T02:09:42;80.97;;;21.52;;
32613;SDS011;19031;51.400;6.770;2023-12-07T02:12:08;66.78;;;20.08;;
32613;SDS011;19031;51.400;6.770;2023-12-07T02:14:34;61.88;;;20.83;;
32613;SDS011;19031;51.400;6.770;2023-12-07T02:17:14;89.45;;;23.27;;
32613;SDS011;19031;51.400;6.770;2023-12-07T02:19:58;65.68;;;21.85;;
32613;SDS011;19031;51.400;6.770;2023-12-07T02:22:52;68.72;;;19.95;;
32613;SDS011;19031;51.400;6.770;2023-12-07T02:25:23;53.15;;;21.15;;
32613;SDS011;19031;51.400;6.770;2023-12-07T02:27:53;59.85;;;20.27;;
32613;SDS011;19031;51.400;6.770;2023-12-07T02:30:19;73.90;;;21.80;;
32613;SDS011;19031;51.400;6.770;2023-12-07T02:32:45;44.03;;;21.95;;
32613;SDS011;19031;51.400;6.770;2023-12-07T02:35:11;41.70;;;20.95;;
32613;SDS011;19031;51.400;6.770;2023-12-07T02:37:48;31.25;;;18.08;;
32613;SDS011;19031;51.400;6.770;2023-12-07T02:40:16;34.53;;;20.48;;
32613;SDS011;19031;51.400;6.770;2023-12-07T02:42:47;35.90;;;19.90;;
32613;SDS011;19031;51.400;6.770;2023-12-07T02:45:13;39.28;;;22.17;;
32613;SDS011;19031;51.400;6.770;2023-12-07T02:47:39;33.88;;;19.38;;
32613;SDS011;19031;51.400;6.770;2023-12-07T02:50:06;38.72;;;22.25;;
32613;SDS011;19031;51.400;6.770;2023-12-07T02:52:33;30.67;;;18.80;;
32613;SDS011;19031;51.400;6.770;2023-12-07T02:54:59;40.10;;;23.63;;
32613;SDS011;19031;51.400;6.770;2023-12-07T02:57:24;37.08;;;20.85;;
32613;SDS011;19031;51.400;6.770;2023-12-07T02:59:50;37.30;;;21.85;;
32613;SDS011;19031;51.400;6.770;2023-12-07T03:02:15;44.40;;;24.42;;
32613;SDS011;19031;51.400;6.770;2023-12-07T03:04:41;48.30;;;24.27;;
32613;SDS011;19031;51.400;6.770;2023-12-07T03:07:07;53.97;;;26.90;;
32613;SDS011;19031;51.400;6.770;2023-12-07T03:09:32;45.00;;;25.85;;
32613;SDS011;19031;51.400;6.770;2023-12-07T03:11:58;52.92;;;25.98;;
32613;SDS011;19031;51.400;6.770;2023-12-07T03:14:23;46.50;;;25.30;;
32613;SDS011;19031;51.400;6.770;2023-12-07T03:16:49;50.38;;;24.77;;
32613;SDS011;19031;51.400;6.770;2023-12-07T03:19:14;63.08;;;27.88;;
32613;SDS011;19031;51.400;6.770;2023-12-07T03:21:40;46.33;;;25.50;;
32613;SDS011;19031;51.400;6.770;2023-12-07T03:24:07;47.33;;;24.40;;
32613;SDS011;19031;51.400;6.770;2023-12-07T03:26:33;45.13;;;24.73;;
32613;SDS011;19031;51.400;6.770;2023-12-07T03:29:00;43.10;;;24.15;;
32613;SDS011;19031;51.400;6.770;2023-12-07T03:31:25;49.05;;;25.23;;
32613;SDS011;19031;51.400;6.770;2023-12-07T03:33:51;51.63;;;27.30;;
32613;SDS011;19031;51.400;6.770;2023-12-07T03:36:16;41.50;;;22.58;;
32613;SDS011;19031;51.400;6.770;2023-12-07T03:38:42;41.90;;;22.67;;
32613;SDS011;19031;51.400;6.770;2023-12-07T03:41:08;51.08;;;26.23;;
32613;SDS011;19031;51.400;6.770;2023-12-07T03:43:33;48.88;;;26.15;;
32613;SDS011;19031;51.400;6.770;2023-12-07T03:45:59;64.55;;;28.05;;
32613;SDS011;19031;51.400;6.770;2023-12-07T03:48:28;54.65;;;26.92;;
32613;SDS011;19031;51.400;6.770;2023-12-07T03:50:53;53.53;;;28.17;;
32613;SDS011;19031;51.400;6.770;2023-12-07T03:53:19;56.05;;;26.20;;
32613;SDS011;19031;51.400;6.770;2023-12-07T03:55:44;51.20;;;26.98;;
32613;SDS011;19031;51.400;6.770;2023-12-07T03:58:10;54.88;;;28.13;;
32613;SDS011;19031;51.400;6.770;2023-12-07T04:00:36;56.03;;;27.67;;
32613;SDS011;19031;51.400;6.770;2023-12-07T04:03:01;54.47;;;27.30;;
32613;SDS011;19031;51.400;6.770;2023-12-07T04:05:27;58.50;;;29.45;;
32613;SDS011;19031;51.400;6.770;2023-12-07T04:07:52;55.63;;;29.02;;
32613;SDS011;19031;51.400;6.770;2023-12-07T04:10:18;52.08;;;28.00;;
32613;SDS011;19031;51.400;6.770;2023-12-07T04:12:43;55.95;;;28.63;;
32613;SDS011;19031;51.400;6.770;2023-12-07T04:15:09;49.92;;;26.45;;
32613;SDS011;19031;51.400;6.770;2023-12-07T04:17:35;54.90;;;26.80;;
32613;SDS011;19031;51.400;6.770;2023-12-07T04:20:00;53.65;;;28.10;;
32613;SDS011;19031;51.400;6.770;2023-12-07T04:22:26;51.70;;;26.65;;
32613;SDS011;19031;51.400;6.770;2023-12-07T04:24:51;61.00;;;28.58;;
32613;SDS011;19031;51.400;6.770;2023-12-07T04:27:17;53.17;;;27.77;;
32613;SDS011;19031;51.400;6.770;2023-12-07T04:29:42;54.63;;;28.83;;
32613;SDS011;19031;51.400;6.770;2023-12-07T04:32:08;48.72;;;25.45;;
32613;SDS011;19031;51.400;6.770;2023-12-07T04:34:34;52.72;;;28.27;;
32613;SDS011;19031;51.400;6.770;2023-12-07T04:36:59;57.22;;;29.73;;
32613;SDS011;19031;51.400;6.770;2023-12-07T04:39:25;60.22;;;29.75;;
32613;SDS011;19031;51.400;6.770;2023-12-07T04:41:51;62.17;;;29.58;;
32613;SDS011;19031;51.400;6.770;2023-12-07T04:44:16;56.13;;;28.92;;
32613;SDS011;19031;51.400;6.770;2023-12-07T04:46:42;58.28;;;30.27;;
32613;SDS011;19031;51.400;6.770;2023-12-07T04:49:08;58.10;;;29.50;;
32613;SDS011;19031;51.400;6.770;2023-12-07T04:51:33;59.05;;;30.77;;
32613;SDS011;19031;51.400;6.770;2023-12-07T04:53:59;56.40;;;28.23;;
32613;SDS011;19031;51.400;6.770;2023-12-07T04:56:25;58.05;;;29.77;;
32613;SDS011;19031;51.400;6.770;2023-12-07T04:58:50;63.97;;;30.42;;
32613;SDS011;19031;51.400;6.770;2023-12-07T05:01:16;59.47;;;30.58;;
32613;SDS011;19031;51.400;6.770;2023-12-07T05:03:43;62.60;;;30.42;;
32613;SDS011;19031;51.400;6.770;2023-12-07T05:06:09;56.40;;;29.08;;
32613;SDS011;19031;51.400;6.770;2023-12-07T05:08:35;59.90;;;27.85;;
32613;SDS011;19031;51.400;6.770;2023-12-07T05:11:00;60.72;;;31.40;;
32613;SDS011;19031;51.400;6.770;2023-12-07T05:13:26;50.25;;;26.30;;
32613;SDS011;19031;51.400;6.770;2023-12-07T05:15:51;59.00;;;29.70;;
32613;SDS011;19031;51.400;6.770;2023-12-07T05:18:17;57.85;;;28.95;;
32613;SDS011;19031;51.400;6.770;2023-12-07T05:20:43;54.05;;;28.70;;
32613;SDS011;19031;51.400;6.770;2023-12-07T05:23:08;64.43;;;30.15;;
32613;SDS011;19031;51.400;6.770;2023-12-07T05:25:34;56.45;;;29.17;;
32613;SDS011;19031;51.400;6.770;2023-12-07T05:27:59;55.47;;;29.15;;
32613;SDS011;19031;51.400;6.770;2023-12-07T05:30:25;55.90;;;27.17;;
32613;SDS011;19031;51.400;6.770;2023-12-07T05:32:50;54.75;;;28.17;;
32613;SDS011;19031;51.400;6.770;2023-12-07T05:35:16;59.25;;;28.15;;
32613;SDS011;19031;51.400;6.770;2023-12-07T05:37:42;64.55;;;29.58;;
32613;SDS011;19031;51.400;6.770;2023-12-07T05:40:07;57.03;;;27.98;;
32613;SDS011;19031;51.400;6.770;2023-12-07T05:42:34;54.58;;;28.65;;
32613;SDS011;19031;51.400;6.770;2023-12-07T05:45:00;53.63;;;28.55;;
32613;SDS011;19031;51.400;6.770;2023-12-07T05:47:26;62.72;;;27.67;;
32613;SDS011;19031;51.400;6.770;2023-12-07T05:49:51;63.85;;;29.00;;
32613;SDS011;19031;51.400;6.770;2023-12-07T05:52:17;51.20;;;27.08;;
32613;SDS011;19031;51.400;6.770;2023-12-07T05:54:43;51.97;;;27.40;;
32613;SDS011;19031;51.400;6.770;2023-12-07T05:57:11;54.80;;;28.25;;
32613;SDS011;19031;51.400;6.770;2023-12-07T05:59:38;55.15;;;28.17;;
32613;SDS011;19031;51.400;6.770;2023-12-07T06:02:03;50.08;;;26.27;;
32613;SDS011;19031;51.400;6.770;2023-12-07T06:04:29;59.30;;;28.67;;
32613;SDS011;19031;51.400;6.770;2023-12-07T06:06:55;53.70;;;27.30;;
32613;SDS011;19031;51.400;6.770;2023-12-07T06:09:21;51.80;;;27.65;;
32613;SDS011;19031;51.400;6.770;2023-12-07T06:11:47;49.60;;;27.70;;
32613;SDS011;19031;51.400;6.770;2023-12-07T06:14:13;52.83;;;28.80;;
32613;SDS011;19031;51.400;6.770;2023-12-07T06:16:38;63.22;;;29.52;;
32613;SDS011;19031;51.400;6.770;2023-12-07T06:19:04;47.78;;;27.52;;
32613;SDS011;19031;51.400;6.770;2023-12-07T06:21:30;51.80;;;26.40;;
32613;SDS011;19031;51.400;6.770;2023-12-07T06:23:56;59.35;;;27.90;;
32613;SDS011;19031;51.400;6.770;2023-12-07T06:26:22;54.97;;;27.95;;
32613;SDS011;19031;51.400;6.770;2023-12-07T06:28:48;54.03;;;27.50;;
32613;SDS011;19031;51.400;6.770;2023-12-07T06:31:13;53.88;;;28.85;;
32613;SDS011;19031;51.400;6.770;2023-12-07T06:33:41;43.50;;;25.25;;
32613;SDS011;19031;51.400;6.770;2023-12-07T06:36:06;45.35;;;23.23;;
32613;SDS011;19031;51.400;6.770;2023-12-07T06:38:32;46.30;;;24.48;;
32613;SDS011;19031;51.400;6.770;2023-12-07T06:40:58;47.42;;;25.00;;
32613;SDS011;19031;51.400;6.770;2023-12-07T06:43:23;53.78;;;26.55;;
32613;SDS011;19031;51.400;6.770;2023-12-07T06:45:49;52.47;;;26.77;;
32613;SDS011;19031;51.400;6.770;2023-12-07T06:48:15;51.72;;;26.92;;
32613;SDS011;19031;51.400;6.770;2023-12-07T06:50:40;55.72;;;27.38;;
32613;SDS011;19031;51.400;6.770;2023-12-07T06:53:06;54.25;;;25.92;;
32613;SDS011;19031;51.400;6.770;2023-12-07T06:55:32;50.63;;;25.13;;
32613;SDS011;19031;51.400;6.770;2023-12-07T06:57:57;49.75;;;25.85;;
32613;SDS011;19031;51.400;6.770;2023-12-07T07:00:23;49.05;;;24.25;;
32613;SDS011;19031;51.400;6.770;2023-12-07T07:02:49;46.67;;;25.13;;
32613;SDS011;19031;51.400;6.770;2023-12-07T07:05:15;47.13;;;25.70;;
32613;SDS011;19031;51.400;6.770;2023-12-07T07:07:40;59.83;;;26.55;;
32613;SDS011;19031;51.400;6.770;2023-12-07T07:10:06;59.70;;;28.45;;
32613;SDS011;19031;51.400;6.770;2023-12-07T07:12:34;58.17;;;27.05;;
32613;SDS011;19031;51.400;6.770;2023-12-07T07:15:00;64.15;;;29.60;;
32613;SDS011;19031;51.400;6.770;2023-12-07T07:17:26;65.72;;;29.80;;
32613;SDS011;19031;51.400;6.770;2023-12-07T07:19:53;65.10;;;29.52;;
32613;SDS011;19031;51.400;6.770;2023-12-07T07:22:20;60.33;;;29.77;;
32613;SDS011;19031;51.400;6.770;2023-12-07T07:24:46;66.53;;;29.30;;
32613;SDS011;19031;51.400;6.770;2023-12-07T07:27:12;66.65;;;28.63;;
32613;SDS011;19031;51.400;6.770;2023-12-07T07:29:37;86.78;;;30.48;;
32613;SDS011;19031;51.400;6.770;2023-12-07T07:32:03;130.52;;;34.17;;
32613;SDS011;19031;51.400;6.770;2023-12-07T07:34:29;156.88;;;33.10;;
32613;SDS011;19031;51.400;6.770;2023-12-07T07:36:55;154.95;;;32.63;;
32613;SDS011;19031;51.400;6.770;2023-12-07T07:39:20;171.80;;;39.17;;
32613;SDS011;19031;51.400;6.770;2023-12-07T07:41:46;175.23;;;35.63;;
32613;SDS011;19031;51.400;6.770;2023-12-07T07:44:11;203.80;;;36.47;;
32613;SDS011;19031;51.400;6.770;2023-12-07T07:46:37;60.53;;;22.73;;
32613;SDS011;19031;51.400;6.770;2023-12-07T07:49:05;129.07;;;30.75;;
32613;SDS011;19031;51.400;6.770;2023-12-07T07:51:31;136.32;;;31.30;;
32613;SDS011;19031;51.400;6.770;2023-12-07T07:53:57;169.13;;;32.45;;
32613;SDS011;19031;51.400;6.770;2023-12-07T07:56:24;123.07;;;28.98;;
32613;SDS011;19031;51.400;6.770;2023-12-07T07:58:50;104.18;;;24.65;;
32613;SDS011;19031;51.400;6.770;2023-12-07T08:01:15;154.00;;;29.40;;
32613;SDS011;19031;51.400;6.770;2023-12-07T08:03:41;85.38;;;25.35;;
32613;SDS011;19031;51.400;6.770;2023-12-07T08:06:06;52.92;;;24.70;;
32613;SDS011;19031;51.400;6.770;2023-12-07T08:08:33;61.88;;;27.88;;
32613;SDS011;19031;51.400;6.770;2023-12-07T08:10:59;58.28;;;27.17;;
32613;SDS011;19031;51.400;6.770;2023-12-07T08:13:26;50.70;;;24.67;;
32613;SDS011;19031;51.400;6.770;2023-12-07T08:15:52;58.08;;;27.80;;
32613;SDS011;19031;51.400;6.770;2023-12-07T08:18:18;66.35;;;29.75;;
32613;SDS011;19031;51.400;6.770;2023-12-07T08:20:44;50.90;;;27.45;;
32613;SDS011;19031;51.400;6.770;2023-12-07T08:23:09;59.50;;;29.85;;
32613;SDS011;19031;51.400;6.770;2023-12-07T08:25:36;55.22;;;28.17;;
32613;SDS011;19031;51.400;6.770;2023-12-07T08:28:04;54.60;;;27.92;;
32613;SDS011;19031;51.400;6.770;2023-12-07T08:30:29;49.50;;;27.38;;
32613;SDS011;19031;51.400;6.770;2023-12-07T08:32:55;59.13;;;26.92;;
32613;SDS011;19031;51.400;6.770;2023-12-07T08:35:21;57.92;;;25.77;;
32613;SDS011;19031;51.400;6.770;2023-12-07T08:37:46;54.75;;;27.33;;
32613;SDS011;19031;51.400;6.770;2023-12-07T08:40:13;59.55;;;28.30;;
32613;SDS011;19031;51.400;6.770;2023-12-07T08:42:40;53.25;;;26.05;;
32613;SDS011;19031;51.400;6.770;2023-12-07T08:45:10;54.88;;;28.63;;
32613;SDS011;19031;51.400;6.770;2023-12-07T08:47:36;53.95;;;28.40;;
32613;SDS011;19031;51.400;6.770;2023-12-07T08:50:01;61.17;;;28.10;;
32613;SDS011;19031;51.400;6.770;2023-12-07T08:52:27;59.85;;;27.75;;
32613;SDS011;19031;51.400;6.770;2023-12-07T08:54:53;51.47;;;25.02;;
32613;SDS011;19031;51.400;6.770;2023-12-07T08:57:19;62.28;;;27.58;;
32613;SDS011;19031;51.400;6.770;2023-12-07T08:59:45;56.55;;;27.52;;
32613;SDS011;19031;51.400;6.770;2023-12-07T09:02:10;54.75;;;28.15;;
32613;SDS011;19031;51.400;6.770;2023-12-07T09:04:37;57.42;;;26.20;;
32613;SDS011;19031;51.400;6.770;2023-12-07T09:07:04;58.15;;;27.50;;
32613;SDS011;19031;51.400;6.770;2023-12-07T09:09:30;53.00;;;25.05;;
32613;SDS011;19031;51.400;6.770;2023-12-07T09:11:56;50.63;;;26.02;;
32613;SDS011;19031;51.400;6.770;2023-12-07T09:14:22;54.97;;;26.73;;
32613;SDS011;19031;51.400;6.770;2023-12-07T09:16:47;50.65;;;25.77;;
32613;SDS011;19031;51.400;6.770;2023-12-07T09:19:16;48.85;;;23.60;;
32613;SDS011;19031;51.400;6.770;2023-12-07T09:21:41;48.70;;;25.40;;
32613;SDS011;19031;51.400;6.770;2023-12-07T09:24:07;44.83;;;23.13;;
32613;SDS011;19031;51.400;6.770;2023-12-07T09:26:32;51.47;;;26.60;;
32613;SDS011;19031;51.400;6.770;2023-12-07T09:28:59;57.20;;;27.15;;
32613;SDS011;19031;51.400;6.770;2023-12-07T09:31:24;51.90;;;27.92;;
32613;SDS011;19031;51.400;6.770;2023-12-07T09:33:50;53.88;;;25.35;;
32613;SDS011;19031;51.400;6.770;2023-12-07T09:36:18;53.92;;;26.05;;
32613;SDS011;19031;51.400;6.770;2023-12-07T09:38:46;55.05;;;25.60;;
32613;SDS011;19031;51.400;6.770;2023-12-07T09:41:12;48.38;;;25.00;;
32613;SDS011;19031;51.400;6.770;2023-12-07T09:43:38;60.88;;;29.35;;
32613;SDS011;19031;51.400;6.770;2023-12-07T09:46:04;47.00;;;25.92;;
32613;SDS011;19031;51.400;6.770;2023-12-07T09:48:31;53.97;;;25.40;;
32613;SDS011;19031;51.400;6.770;2023-12-07T09:50:57;54.25;;;25.35;;
32613;SDS011;19031;51.400;6.770;2023-12-07T09:53:26;47.58;;;24.05;;
32613;SDS011;19031;51.400;6.770;2023-12-07T09:55:54;52.75;;;26.35;;
32613;SDS011;19031;51.400;6.770;2023-12-07T09:58:19;50.58;;;25.00;;
32613;SDS011;19031;51.400;6.770;2023-12-07T10:00:46;48.35;;;24.98;;
32613;SDS011;19031;51.400;6.770;2023-12-07T10:03:21;48.83;;;24.55;;
32613;SDS011;19031;51.400;6.770;2023-12-07T10:05:55;49.72;;;25.52;;
32613;SDS011;19031;51.400;6.770;2023-12-07T10:08:40;55.42;;;25.02;;
32613;SDS011;19031;51.400;6.770;2023-12-07T10:11:06;45.33;;;24.33;;
32613;SDS011;19031;51.400;6.770;2023-12-07T10:13:37;51.47;;;27.52;;
32613;SDS011;19031;51.400;6.770;2023-12-07T10:16:13;61.58;;;29.70;;
32613;SDS011;19031;51.400;6.770;2023-12-07T10:18:40;49.28;;;28.63;;
32613;SDS011;19031;51.400;6.770;2023-12-07T10:21:09;42.25;;;23.85;;
32613;SDS011;19031;51.400;6.770;2023-12-07T10:23:36;32.17;;;19.33;;
32613;SDS011;19031;51.400;6.770;2023-12-07T10:26:02;31.23;;;16.35;;
32613;SDS011;19031;51.400;6.770;2023-12-07T10:28:29;26.00;;;15.45;;
32613;SDS011;19031;51.400;6.770;2023-12-07T10:30:55;24.02;;;15.13;;
32613;SDS011;19031;51.400;6.770;2023-12-07T10:33:22;22.95;;;14.13;;
32613;SDS011;19031;51.400;6.770;2023-12-07T10:35:48;23.15;;;12.85;;
32613;SDS011;19031;51.400;6.770;2023-12-07T10:38:14;22.98;;;13.07;;
32613;SDS011;19031;51.400;6.770;2023-12-07T10:40:40;20.42;;;12.02;;
32613;SDS011;19031;51.400;6.770;2023-12-07T10:43:07;23.85;;;13.32;;
32613;SDS011;19031;51.400;6.770;2023-12-07T10:45:34;18.83;;;12.10;;
32613;SDS011;19031;51.400;6.770;2023-12-07T10:48:05;23.48;;;13.20;;
32613;SDS011;19031;51.400;6.770;2023-12-07T10:50:34;22.85;;;12.65;;
32613;SDS011;19031;51.400;6.770;2023-12-07T10:53:10;23.58;;;13.00;;
32613;SDS011;19031;51.400;6.770;2023-12-07T10:55:47;23.33;;;13.27;;
32613;SDS011;19031;51.400;6.770;2023-12-07T10:58:17;23.95;;;13.18;;
32613;SDS011;19031;51.400;6.770;2023-12-07T11:00:44;31.38;;;14.35;;
32613;SDS011;19031;51.400;6.770;2023-12-07T11:03:14;24.35;;;13.77;;
32613;SDS011;19031;51.400;6.770;2023-12-07T11:05:41;20.45;;;13.75;;
32613;SDS011;19031;51.400;6.770;2023-12-07T11:08:09;24.67;;;14.50;;
32613;SDS011;19031;51.400;6.770;2023-12-07T11:13:17;27.38;;;14.32;;
32613;SDS011;19031;51.400;6.770;2023-12-07T11:15:48;26.58;;;14.30;;
32613;SDS011;19031;51.400;6.770;2023-12-07T11:18:14;23.48;;;13.10;;
32613;SDS011;19031;51.400;6.770;2023-12-07T11:23:07;25.23;;;13.98;;
32613;SDS011;19031;51.400;6.770;2023-12-07T11:25:33;25.55;;;15.48;;
32613;SDS011;19031;51.400;6.770;2023-12-07T11:28:05;24.05;;;13.82;;
32613;SDS011;19031;51.400;6.770;2023-12-07T11:30:32;23.73;;;14.73;;
32613;SDS011;19031;51.400;6.770;2023-12-07T11:33:02;22.55;;;13.05;;
32613;SDS011;19031;51.400;6.770;2023-12-07T11:35:29;25.10;;;13.55;;
32613;SDS011;19031;51.400;6.770;2023-12-07T11:40:29;23.48;;;13.60;;
32613;SDS011;19031;51.400;6.770;2023-12-07T11:42:55;22.85;;;12.38;;
32613;SDS011;19031;51.400;6.770;2023-12-07T11:45:47;27.67;;;12.05;;
32613;SDS011;19031;51.400;6.770;2023-12-07T11:48:13;26.80;;;13.52;;
32613;SDS011;19031;51.400;6.770;2023-12-07T11:50:52;25.45;;;13.98;;
32613;SDS011;19031;51.400;6.770;2023-12-07T11:53:30;25.98;;;13.95;;
32613;SDS011;19031;51.400;6.770;2023-12-07T11:55:57;25.75;;;13.27;;
32613;SDS011;19031;51.400;6.770;2023-12-07T11:58:27;25.60;;;13.18;;
32613;SDS011;19031;51.400;6.770;2023-12-07T12:00:53;24.25;;;13.45;;
32613;SDS011;19031;51.400;6.770;2023-12-07T12:03:21;23.98;;;13.18;;
32613;SDS011;19031;51.400;6.770;2023-12-07T12:05:50;25.45;;;13.20;;
32613;SDS011;19031;51.400;6.770;2023-12-07T12:08:17;21.45;;;12.75;;
32613;SDS011;19031;51.400;6.770;2023-12-07T12:10:43;21.05;;;12.98;;
32613;SDS011;19031;51.400;6.770;2023-12-07T12:13:10;21.40;;;13.50;;
32613;SDS011;19031;51.400;6.770;2023-12-07T12:15:36;24.73;;;13.13;;
32613;SDS011;19031;51.400;6.770;2023-12-07T12:18:02;22.35;;;12.95;;
32613;SDS011;19031;51.400;6.770;2023-12-07T12:20:28;23.65;;;12.73;;
32613;SDS011;19031;51.400;6.770;2023-12-07T12:22:54;26.10;;;12.80;;
32613;SDS011;19031;51.400;6.770;2023-12-07T12:25:23;19.77;;;11.85;;
32613;SDS011;19031;51.400;6.770;2023-12-07T12:27:57;22.33;;;12.30;;
32613;SDS011;19031;51.400;6.770;2023-12-07T12:30:26;21.42;;;11.48;;
32613;SDS011;19031;51.400;6.770;2023-12-07T12:32:53;29.83;;;14.82;;
32613;SDS011;19031;51.400;6.770;2023-12-07T12:35:19;20.92;;;11.93;;
32613;SDS011;19031;51.400;6.770;2023-12-07T12:37:45;20.48;;;11.43;;
32613;SDS011;19031;51.400;6.770;2023-12-07T12:40:12;22.00;;;12.73;;
32613;SDS011;19031;51.400;6.770;2023-12-07T12:42:48;20.50;;;12.65;;
32613;SDS011;19031;51.400;6.770;2023-12-07T12:45:15;20.65;;;10.75;;
32613;SDS011;19031;51.400;6.770;2023-12-07T12:47:47;21.73;;;12.00;;
32613;SDS011;19031;51.400;6.770;2023-12-07T12:50:32;20.27;;;11.27;;
32613;SDS011;19031;51.400;6.770;2023-12-07T12:53:05;18.58;;;11.40;;
32613;SDS011;19031;51.400;6.770;2023-12-07T12:55:38;20.13;;;12.35;;
32613;SDS011;19031;51.400;6.770;2023-12-07T12:58:08;23.67;;;13.00;;
32613;SDS011;19031;51.400;6.770;2023-12-07T13:00:34;20.23;;;12.25;;
32613;SDS011;19031;51.400;6.770;2023-12-07T13:03:04;21.25;;;11.77;;
32613;SDS011;19031;51.400;6.770;2023-12-07T13:05:30;19.80;;;11.48;;
32613;SDS011;19031;51.400;6.770;2023-12-07T13:07:57;20.75;;;11.93;;
32613;SDS011;19031;51.400;6.770;2023-12-07T13:10:24;19.48;;;11.30;;
32613;SDS011;19031;51.400;6.770;2023-12-07T13:12:50;18.98;;;10.82;;
32613;SDS011;19031;51.400;6.770;2023-12-07T13:15:16;19.02;;;10.90;;
32613;SDS011;19031;51.400;6.770;2023-12-07T13:17:42;18.02;;;10.57;;
32613;SDS011;19031;51.400;6.770;2023-12-07T13:20:08;17.55;;;10.60;;
32613;SDS011;19031;51.400;6.770;2023-12-07T13:22:41;18.50;;;10.60;;
32613;SDS011;19031;51.400;6.770;2023-12-07T13:25:10;20.50;;;11.05;;
32613;SDS011;19031;51.400;6.770;2023-12-07T13:27:37;21.63;;;11.18;;
32613;SDS011;19031;51.400;6.770;2023-12-07T13:30:03;17.38;;;10.77;;
32613;SDS011;19031;51.400;6.770;2023-12-07T13:32:32;19.63;;;11.13;;
32613;SDS011;19031;51.400;6.770;2023-12-07T13:34:58;28.45;;;12.00;;
32613;SDS011;19031;51.400;6.770;2023-12-07T13:37:24;16.58;;;10.05;;
32613;SDS011;19031;51.400;6.770;2023-12-07T13:39:50;17.38;;;10.15;;
32613;SDS011;19031;51.400;6.770;2023-12-07T13:42:21;19.00;;;9.95;;
32613;SDS011;19031;51.400;6.770;2023-12-07T13:44:46;21.55;;;11.55;;
32613;SDS011;19031;51.400;6.770;2023-12-07T13:47:12;18.45;;;11.25;;
32613;SDS011;19031;51.400;6.770;2023-12-07T13:49:42;24.50;;;11.27;;
32613;SDS011;19031;51.400;6.770;2023-12-07T13:52:07;15.95;;;10.57;;
32613;SDS011;19031;51.400;6.770;2023-12-07T13:54:33;20.08;;;10.80;;
32613;SDS011;19031;51.400;6.770;2023-12-07T13:57:01;16.23;;;10.00;;
32613;SDS011;19031;51.400;6.770;2023-12-07T13:59:28;19.27;;;10.95;;
32613;SDS011;19031;51.400;6.770;2023-12-07T14:01:54;14.82;;;9.38;;
32613;SDS011;19031;51.400;6.770;2023-12-07T14:04:20;16.45;;;9.98;;
32613;SDS011;19031;51.400;6.770;2023-12-07T14:06:46;18.55;;;9.77;;
32613;SDS011;19031;51.400;6.770;2023-12-07T14:09:11;18.80;;;9.65;;
32613;SDS011;19031;51.400;6.770;2023-12-07T14:11:37;19.23;;;10.55;;
32613;SDS011;19031;51.400;6.770;2023-12-07T14:14:04;21.52;;;9.77;;
32613;SDS011;19031;51.400;6.770;2023-12-07T14:16:30;20.52;;;10.38;;
32613;SDS011;19031;51.400;6.770;2023-12-07T14:18:55;24.50;;;9.20;;
32613;SDS011;19031;51.400;6.770;2023-12-07T14:21:21;15.30;;;9.57;;
32613;SDS011;19031;51.400;6.770;2023-12-07T14:23:47;13.52;;;8.90;;
32613;SDS011;19031;51.400;6.770;2023-12-07T14:26:13;15.55;;;8.52;;
32613;SDS011;19031;51.400;6.770;2023-12-07T14:28:38;18.48;;;9.95;;